sensor_id;sensor_type;location;lat;lon;timestamp;pressure;altitude;pressure_sealevel;temperature;humidity
5996;BME280;3026;53.612;7.278;2023-08-12T00:00:58;101631.44;;;20.35;100.00
5996;BME280;3026;53.612;7.278;2023-08-12T00:03:25;101631.03;;;20.38;100.00
5996;BME280;3026;53.612;7.278;2023-08-12T00:05:55;101627.59;;;20.36;100.00
5996;BME280;3026;53.612;7.278;2023-08-12T00:11:17;101621.66;;;20.33;100.00
5996;BME280;3026;53.612;7.278;2023-08-12T00:13:45;101626.34;;;20.32;100.00
5996;BME280;3026;53.612;7.278;2023-08-12T00:16:13;101628.03;;;20.33;100.00
5996;BME280;3026;53.612;7.278;2023-08-12T00:18:40;101618.66;;;20.34;100.00
5996;BME280;3026;53.612;7.278;2023-08-12T00:21:09;101611.88;;;20.30;100.00
5996;BME280;3026;53.612;7.278;2023-08-12T00:23:40;101622.50;;;20.33;100.00
5996;BME280;3026;53.612;7.278;2023-08-12T00:26:08;101605.03;;;20.33;100.00
5996;BME280;3026;53.612;7.278;2023-08-12T00:28:35;101622.06;;;20.36;100.00
5996;BME280;3026;53.612;7.278;2023-08-12T00:31:02;101617.81;;;20.34;100.00
5996;BME280;3026;53.612;7.278;2023-08-12T00:33:31;101613.56;;;20.31;100.00
5996;BME280;3026;53.612;7.278;2023-08-12T00:35:59;101611.88;;;20.30;100.00
5996;BME280;3026;53.612;7.278;2023-08-12T00:38:29;101610.19;;;20.29;100.00
5996;BME280;3026;53.612;7.278;2023-08-12T00:40:56;101613.38;;;20.26;100.00
5996;BME280;3026;53.612;7.278;2023-08-12T00:43:23;101597.63;;;20.20;100.00
5996;BME280;3026;53.612;7.278;2023-08-12T00:45:50;101594.88;;;20.20;100.00
5996;BME280;3026;53.612;7.278;2023-08-12T00:48:18;101596.56;;;20.21;100.00
5996;BME280;3026;53.612;7.278;2023-08-12T00:50:46;101603.16;;;20.20;100.00
5996;BME280;3026;53.612;7.278;2023-08-12T00:53:14;101603.00;;;20.15;100.00
5996;BME280;3026;53.612;7.278;2023-08-12T00:55:42;101615.75;;;20.16;100.00
5996;BME280;3026;53.612;7.278;2023-08-12T00:58:12;101620.00;;;20.12;100.00
5996;BME280;3026;53.612;7.278;2023-08-12T01:00:39;101619.81;;;20.07;100.00
5996;BME280;3026;53.612;7.278;2023-08-12T01:03:07;101611.97;;;20.04;100.00
5996;BME280;3026;53.612;7.278;2023-08-12T01:05:34;101615.78;;;20.03;100.00
5996;BME280;3026;53.612;7.278;2023-08-12T01:08:03;101613.22;;;20.01;100.00
5996;BME280;3026;53.612;7.278;2023-08-12T01:10:33;101611.53;;;20.00;100.00
5996;BME280;3026;53.612;7.278;2023-08-12T01:13:08;101620.03;;;19.99;100.00
5996;BME280;3026;53.612;7.278;2023-08-12T01:15:46;101612.19;;;19.96;100.00
5996;BME280;3026;53.612;7.278;2023-08-12T02:12:36;101569.00;;;19.55;100.00
5996;BME280;3026;53.612;7.278;2023-08-12T02:15:11;101555.63;;;19.59;100.00
5996;BME280;3026;53.612;7.278;2023-08-12T02:17:44;101557.53;;;19.58;100.00
5996;BME280;3026;53.612;7.278;2023-08-12T02:20:39;101550.94;;;19.59;100.00
5996;BME280;3026;53.612;7.278;2023-08-12T02:23:12;101550.72;;;19.61;100.00
5996;BME280;3026;53.612;7.278;2023-08-12T02:25:45;101544.34;;;19.60;100.00
5996;BME280;3026;53.612;7.278;2023-08-12T03:52:38;101477.72;;;19.55;100.00
5996;BME280;3026;53.612;7.278;2023-08-12T03:55:18;101478.38;;;19.57;100.00
5996;BME280;3026;53.612;7.278;2023-08-12T03:57:48;101476.66;;;19.56;100.00
5996;BME280;3026;53.612;7.278;2023-08-12T04:04:14;101482.59;;;19.53;100.00
5996;BME280;3026;53.612;7.278;2023-08-12T04:06:41;101467.69;;;19.54;100.00
5996;BME280;3026;53.612;7.278;2023-08-12T04:09:12;101459.63;;;19.52;100.00
5996;BME280;3026;53.612;7.278;2023-08-12T04:11:45;101470.28;;;19.56;100.00
5996;BME280;3026;53.612;7.278;2023-08-12T04:14:20;101465.78;;;19.54;100.00
5996;BME280;3026;53.612;7.278;2023-08-12T04:17:13;101463.69;;;19.50;100.00
5996;BME280;3026;53.612;7.278;2023-08-12T04:19:46;101468.56;;;19.54;100.00
5996;BME280;3026;53.612;7.278;2023-08-12T04:22:17;101466.25;;;19.58;100.00
5996;BME280;3026;53.612;7.278;2023-08-12T04:27:58;101474.56;;;19.58;100.00
5996;BME280;3026;53.612;7.278;2023-08-12T08:47:51;101330.22;;;21.61;100.00
5996;BME280;3026;53.612;7.278;2023-08-12T08:50:41;101334.19;;;21.65;100.00
5996;BME280;3026;53.612;7.278;2023-08-12T08:53:14;101322.25;;;21.64;100.00
5996;BME280;3026;53.612;7.278;2023-08-12T08:55:46;101330.97;;;21.68;100.00
5996;BME280;3026;53.612;7.278;2023-08-12T08:58:13;101335.22;;;21.70;100.00
5996;BME280;3026;53.612;7.278;2023-08-12T09:00:41;101336.06;;;21.71;100.00
5996;BME280;3026;53.612;7.278;2023-08-12T09:03:14;101333.88;;;21.73;100.00
5996;BME280;3026;53.612;7.278;2023-08-12T09:05:45;101332.13;;;21.78;100.00
5996;BME280;3026;53.612;7.278;2023-08-12T09:08:12;101331.88;;;21.80;100.00
5996;BME280;3026;53.612;7.278;2023-08-12T09:10:40;101320.16;;;21.78;100.00
5996;BME280;3026;53.612;7.278;2023-08-12T09:13:10;101328.84;;;21.81;100.00
5996;BME280;3026;53.612;7.278;2023-08-12T09:15:44;101334.78;;;21.85;100.00
5996;BME280;3026;53.612;7.278;2023-08-12T09:18:17;101322.59;;;21.86;100.00
5996;BME280;3026;53.612;7.278;2023-08-12T09:20:44;101323.00;;;21.90;100.00
5996;BME280;3026;53.612;7.278;2023-08-12T09:23:29;101319.97;;;21.91;100.00
5996;BME280;3026;53.612;7.278;2023-08-12T09:26:19;101312.72;;;21.90;100.00
5996;BME280;3026;53.612;7.278;2023-08-12T09:32:58;101314.25;;;21.86;100.00
5996;BME280;3026;53.612;7.278;2023-08-12T09:36:11;101305.50;;;21.89;100.00
5996;BME280;3026;53.612;7.278;2023-08-12T09:38:53;101316.00;;;21.99;100.00
5996;BME280;3026;53.612;7.278;2023-08-12T09:41:43;101308.66;;;22.04;100.00
5996;BME280;3026;53.612;7.278;2023-08-12T09:44:28;101299.88;;;22.07;100.00
5996;BME280;3026;53.612;7.278;2023-08-12T09:47:25;101295.41;;;22.06;100.00
5996;BME280;3026;53.612;7.278;2023-08-12T09:50:48;101287.69;;;22.08;100.00
5996;BME280;3026;53.612;7.278;2023-08-12T09:53:56;101287.69;;;22.08;100.00
5996;BME280;3026;53.612;7.278;2023-08-12T09:56:44;101294.00;;;22.16;100.00
5996;BME280;3026;53.612;7.278;2023-08-12T09:59:36;101287.09;;;22.18;100.00
5996;BME280;3026;53.612;7.278;2023-08-12T10:02:11;101287.94;;;22.19;100.00
5996;BME280;3026;53.612;7.278;2023-08-12T10:05:04;101282.75;;;22.22;100.00
5996;BME280;3026;53.612;7.278;2023-08-12T10:08:15;101273.47;;;22.17;100.00
5996;BME280;3026;53.612;7.278;2023-08-12T10:11:07;101273.56;;;22.22;100.00
5996;BME280;3026;53.612;7.278;2023-08-12T10:14:05;101287.47;;;22.22;100.00
5996;BME280;3026;53.612;7.278;2023-08-12T10:16:39;101278.03;;;22.23;100.00
5996;BME280;3026;53.612;7.278;2023-08-12T10:19:12;101273.38;;;22.23;100.00
5996;BME280;3026;53.612;7.278;2023-08-12T10:21:48;101285.91;;;22.26;100.00
5996;BME280;3026;53.612;7.278;2023-08-12T10:24:25;101289.78;;;22.25;100.00
5996;BME280;3026;53.612;7.278;2023-08-12T10:27:01;101286.38;;;22.23;100.00
5996;BME280;3026;53.612;7.278;2023-08-12T10:29:56;101289.63;;;22.20;100.00
5996;BME280;3026;53.612;7.278;2023-08-12T10:32:31;101286.75;;;22.15;100.00
5996;BME280;3026;53.612;7.278;2023-08-12T10:34:59;101280.78;;;22.11;100.00
5996;BME280;3026;53.612;7.278;2023-08-12T10:37:41;101282.72;;;22.10;100.00
5996;BME280;3026;53.612;7.278;2023-08-12T11:39:55;101217.09;;;21.86;100.00
5996;BME280;3026;53.612;7.278;2023-08-12T11:56:08;101222.44;;;21.99;100.00
5996;BME280;3026;53.612;7.278;2023-08-12T15:58:44;101318.69;;;21.27;100.00
5996;BME280;3026;53.612;7.278;2023-08-12T16:01:33;101312.22;;;21.33;100.00
5996;BME280;3026;53.612;7.278;2023-08-12T16:04:17;101319.00;;;21.37;100.00
5996;BME280;3026;53.612;7.278;2023-08-12T16:07:03;101316.22;;;21.37;100.00
5996;BME280;3026;53.612;7.278;2023-08-12T16:09:47;101312.53;;;21.43;100.00
5996;BME280;3026;53.612;7.278;2023-08-12T16:12:20;101323.38;;;21.45;100.00
5996;BME280;3026;53.612;7.278;2023-08-12T16:17:59;101317.59;;;21.46;100.00
5996;BME280;3026;53.612;7.278;2023-08-12T16:20:36;101318.06;;;21.43;100.00
5996;BME280;3026;53.612;7.278;2023-08-12T16:23:15;101325.31;;;21.44;100.00
5996;BME280;3026;53.612;7.278;2023-08-12T16:25:59;101313.13;;;21.45;100.00
5996;BME280;3026;53.612;7.278;2023-08-12T16:28:32;101319.22;;;21.54;100.00
5996;BME280;3026;53.612;7.278;2023-08-12T16:31:10;101322.19;;;21.52;100.00
5996;BME280;3026;53.612;7.278;2023-08-12T16:37:17;101323.44;;;21.38;100.00
5996;BME280;3026;53.612;7.278;2023-08-12T16:39:47;101326.22;;;21.38;100.00
5996;BME280;3026;53.612;7.278;2023-08-12T16:42:15;101321.28;;;21.40;100.00
5996;BME280;3026;53.612;7.278;2023-08-12T16:44:42;101332.38;;;21.40;100.00
5996;BME280;3026;53.612;7.278;2023-08-12T16:47:11;101335.63;;;21.37;100.00
5996;BME280;3026;53.612;7.278;2023-08-12T16:49:40;101333.31;;;21.34;100.00
5996;BME280;3026;53.612;7.278;2023-08-12T16:52:36;101340.41;;;21.30;100.00
5996;BME280;3026;53.612;7.278;2023-08-12T16:55:11;101329.78;;;21.27;100.00
5996;BME280;3026;53.612;7.278;2023-08-12T16:58:00;101331.53;;;21.21;100.00
5996;BME280;3026;53.612;7.278;2023-08-12T17:00:28;101341.78;;;21.21;100.00
5996;BME280;3026;53.612;7.278;2023-08-12T17:06:48;101339.78;;;21.10;100.00
5996;BME280;3026;53.612;7.278;2023-08-12T17:09:23;101347.84;;;21.11;100.00
5996;BME280;3026;53.612;7.278;2023-08-12T17:11:51;101352.56;;;21.11;100.00
5996;BME280;3026;53.612;7.278;2023-08-12T17:14:17;101349.59;;;21.06;100.00
5996;BME280;3026;53.612;7.278;2023-08-12T17:16:44;101348.38;;;21.02;100.00
5996;BME280;3026;53.612;7.278;2023-08-12T17:19:11;101349.47;;;21.01;100.00
5996;BME280;3026;53.612;7.278;2023-08-12T17:21:39;101342.22;;;21.00;100.00
5996;BME280;3026;53.612;7.278;2023-08-12T17:24:06;101352.09;;;20.95;100.00
5996;BME280;3026;53.612;7.278;2023-08-12T17:26:34;101353.13;;;20.94;100.00
5996;BME280;3026;53.612;7.278;2023-08-12T17:29:01;101350.59;;;20.93;100.00
5996;BME280;3026;53.612;7.278;2023-08-12T17:31:28;101350.22;;;20.89;100.00
5996;BME280;3026;53.612;7.278;2023-08-12T17:33:55;101355.75;;;20.89;100.00
5996;BME280;3026;53.612;7.278;2023-08-12T17:36:25;101359.59;;;20.88;100.00
5996;BME280;3026;53.612;7.278;2023-08-12T17:38:52;101355.38;;;20.86;100.00
5996;BME280;3026;53.612;7.278;2023-08-12T17:41:19;101353.88;;;20.83;100.00
5996;BME280;3026;53.612;7.278;2023-08-12T17:43:47;101359.41;;;20.83;100.00
5996;BME280;3026;53.612;7.278;2023-08-12T17:46:15;101360.34;;;20.77;100.00
5996;BME280;3026;53.612;7.278;2023-08-12T17:48:43;101358.44;;;20.78;100.00
5996;BME280;3026;53.612;7.278;2023-08-12T17:51:09;101367.59;;;20.78;100.00
5996;BME280;3026;53.612;7.278;2023-08-12T17:53:40;101357.63;;;20.71;100.00
5996;BME280;3026;53.612;7.278;2023-08-12T17:56:08;101369.34;;;20.73;100.00
5996;BME280;3026;53.612;7.278;2023-08-12T17:58:35;101364.47;;;20.68;100.00
5996;BME280;3026;53.612;7.278;2023-08-12T18:01:04;101375.56;;;20.68;100.00
5996;BME280;3026;53.612;7.278;2023-08-12T18:03:30;101376.03;;;20.65;100.00
5996;BME280;3026;53.612;7.278;2023-08-12T18:05:57;101385.41;;;20.64;100.00
5996;BME280;3026;53.612;7.278;2023-08-12T18:08:25;101387.56;;;20.62;100.00
5996;BME280;3026;53.612;7.278;2023-08-12T18:10:52;101386.75;;;20.55;100.00
5996;BME280;3026;53.612;7.278;2023-08-12T18:13:19;101389.53;;;20.55;100.00
5996;BME280;3026;53.612;7.278;2023-08-12T18:15:47;101393.19;;;20.49;100.00
5996;BME280;3026;53.612;7.278;2023-08-12T18:26:03;101394.94;;;20.36;100.00
5996;BME280;3026;53.612;7.278;2023-08-12T18:28:31;101396.47;;;20.32;100.00
5996;BME280;3026;53.612;7.278;2023-08-12T18:30:58;101406.47;;;20.33;100.00
5996;BME280;3026;53.612;7.278;2023-08-12T18:33:25;101406.94;;;20.30;100.00
5996;BME280;3026;53.612;7.278;2023-08-12T18:35:52;101403.97;;;20.25;100.00
5996;BME280;3026;53.612;7.278;2023-08-12T18:38:19;101406.13;;;20.23;100.00
5996;BME280;3026;53.612;7.278;2023-08-12T18:40:46;101397.66;;;20.18;100.00
5996;BME280;3026;53.612;7.278;2023-08-12T18:43:15;101406.19;;;20.17;100.00
5996;BME280;3026;53.612;7.278;2023-08-12T18:45:42;101412.78;;;20.16;100.00
5996;BME280;3026;53.612;7.278;2023-08-12T18:48:09;101417.91;;;20.12;100.00
5996;BME280;3026;53.612;7.278;2023-08-12T18:51:02;101421.13;;;20.09;100.00
5996;BME280;3026;53.612;7.278;2023-08-12T18:54:04;101427.09;;;20.06;100.00
5996;BME280;3026;53.612;7.278;2023-08-12T18:57:00;101426.28;;;19.99;100.00
5996;BME280;3026;53.612;7.278;2023-08-12T18:59:47;101439.03;;;20.00;100.00
5996;BME280;3026;53.612;7.278;2023-08-12T19:06:34;101428.50;;;19.84;100.00
5996;BME280;3026;53.612;7.278;2023-08-12T19:10:27;101440.41;;;19.77;100.00
5996;BME280;3026;53.612;7.278;2023-08-12T19:13:29;101440.88;;;19.74;100.00
5996;BME280;3026;53.612;7.278;2023-08-12T19:19:34;101442.16;;;19.65;100.00
5996;BME280;3026;53.612;7.278;2023-08-12T19:22:27;101448.59;;;19.59;100.00
5996;BME280;3026;53.612;7.278;2023-08-12T19:25:21;101454.53;;;19.56;100.00
5996;BME280;3026;53.612;7.278;2023-08-12T19:28:01;101456.63;;;19.54;100.00
5996;BME280;3026;53.612;7.278;2023-08-12T19:30:45;101465.59;;;19.49;100.00
5996;BME280;3026;53.612;7.278;2023-08-12T19:34:24;101464.34;;;19.39;100.00
5996;BME280;3026;53.612;7.278;2023-08-12T19:37:19;101459.66;;;19.33;100.00
5996;BME280;3026;53.612;7.278;2023-08-12T19:39:54;101467.75;;;19.28;100.00
5996;BME280;3026;53.612;7.278;2023-08-12T19:42:23;101476.28;;;19.26;100.00
5996;BME280;3026;53.612;7.278;2023-08-12T19:45:21;101472.03;;;19.23;100.00
5996;BME280;3026;53.612;7.278;2023-08-12T19:48:17;101463.50;;;19.18;100.00
5996;BME280;3026;53.612;7.278;2023-08-12T19:51:37;101468.84;;;19.13;100.00
5996;BME280;3026;53.612;7.278;2023-08-12T19:57:41;101472.88;;;19.04;100.00
5996;BME280;3026;53.612;7.278;2023-08-12T20:00:14;101480.13;;;19.05;100.00
5996;BME280;3026;53.612;7.278;2023-08-12T20:03:24;101478.84;;;19.01;100.00
5996;BME280;3026;53.612;7.278;2023-08-12T20:06:28;101482.66;;;18.93;100.00
5996;BME280;3026;53.612;7.278;2023-08-12T20:09:25;101484.16;;;18.89;100.00
5996;BME280;3026;53.612;7.278;2023-08-12T20:16:25;101485.63;;;18.79;100.00
5996;BME280;3026;53.612;7.278;2023-08-12T20:19:14;101483.72;;;18.79;100.00
5996;BME280;3026;53.612;7.278;2023-08-12T20:21:48;101486.06;;;18.76;100.00
5996;BME280;3026;53.612;7.278;2023-08-12T20:25:17;101483.50;;;18.68;100.00
5996;BME280;3026;53.612;7.278;2023-08-12T20:27:58;101488.19;;;18.67;100.00
5996;BME280;3026;53.612;7.278;2023-08-12T20:30:32;101484.28;;;18.61;100.00
5996;BME280;3026;53.612;7.278;2023-08-12T20:37:17;101484.91;;;18.50;100.00
5996;BME280;3026;53.612;7.278;2023-08-12T20:41:45;101483.81;;;18.38;100.00
5996;BME280;3026;53.612;7.278;2023-08-12T20:47:30;101480.38;;;18.23;100.00
5996;BME280;3026;53.612;7.278;2023-08-12T20:50:21;101483.78;;;18.25;100.00
5996;BME280;3026;53.612;7.278;2023-08-12T20:53:42;101475.25;;;18.13;100.00
5996;BME280;3026;53.612;7.278;2023-08-12T21:00:19;101483.09;;;18.10;100.00
5996;BME280;3026;53.612;7.278;2023-08-12T21:03:30;101481.59;;;18.00;100.00
5996;BME280;3026;53.612;7.278;2023-08-12T21:06:27;101485.19;;;18.01;100.00
5996;BME280;3026;53.612;7.278;2023-08-12T21:09:14;101484.97;;;17.96;100.00
5996;BME280;3026;53.612;7.278;2023-08-12T21:12:02;101480.25;;;17.90;100.00
5996;BME280;3026;53.612;7.278;2023-08-12T21:14:33;101475.81;;;17.89;100.00
5996;BME280;3026;53.612;7.278;2023-08-12T21:17:02;101475.75;;;17.82;100.00
5996;BME280;3026;53.612;7.278;2023-08-12T21:19:34;101482.34;;;17.81;100.00
5996;BME280;3026;53.612;7.278;2023-08-12T21:22:04;101477.22;;;17.78;100.00
5996;BME280;3026;53.612;7.278;2023-08-12T21:24:35;101471.50;;;17.73;100.00
5996;BME280;3026;53.612;7.278;2023-08-12T21:27:02;101474.63;;;17.70;100.00
5996;BME280;3026;53.612;7.278;2023-08-12T21:29:29;101464.00;;;17.67;100.00
5996;BME280;3026;53.612;7.278;2023-08-12T21:32:03;101469.91;;;17.64;100.00
5996;BME280;3026;53.612;7.278;2023-08-12T21:34:33;101468.63;;;17.60;100.00
5996;BME280;3026;53.612;7.278;2023-08-12T21:37:06;101467.72;;;17.53;100.00
5996;BME280;3026;53.612;7.278;2023-08-12T21:39:47;101463.69;;;17.48;100.00
5996;BME280;3026;53.612;7.278;2023-08-12T21:42:18;101462.38;;;17.44;100.00
5996;BME280;3026;53.612;7.278;2023-08-12T21:44:48;101461.69;;;17.36;100.00
5996;BME280;3026;53.612;7.278;2023-08-12T21:47:19;101457.44;;;17.33;100.00
5996;BME280;3026;53.612;7.278;2023-08-12T21:49:48;101462.09;;;17.33;100.00
5996;BME280;3026;53.612;7.278;2023-08-12T21:52:18;101459.31;;;17.26;100.00
5996;BME280;3026;53.612;7.278;2023-08-12T21:54:49;101466.31;;;17.29;100.00
5996;BME280;3026;53.612;7.278;2023-08-12T21:57:19;101455.22;;;17.22;100.00
5996;BME280;3026;53.612;7.278;2023-08-12T21:59:58;101450.53;;;17.16;100.00
5996;BME280;3026;53.612;7.278;2023-08-12T22:02:28;101452.25;;;17.17;100.00
5996;BME280;3026;53.612;7.278;2023-08-12T22:04:58;101452.66;;;17.14;100.00
5996;BME280;3026;53.612;7.278;2023-08-12T22:07:36;101463.66;;;17.14;100.00
5996;BME280;3026;53.612;7.278;2023-08-12T22:10:15;101455.53;;;17.06;100.00
5996;BME280;3026;53.612;7.278;2023-08-12T22:12:57;101452.53;;;17.01;100.00
5996;BME280;3026;53.612;7.278;2023-08-12T22:15:31;101460.13;;;16.99;100.00
5996;BME280;3026;53.612;7.278;2023-08-12T22:18:21;101450.31;;;16.89;100.00
5996;BME280;3026;53.612;7.278;2023-08-12T22:20:50;101448.25;;;16.91;100.00
5996;BME280;3026;53.612;7.278;2023-08-12T22:23:22;101455.03;;;16.96;100.00
5996;BME280;3026;53.612;7.278;2023-08-12T22:25:53;101448.88;;;16.94;100.00
5996;BME280;3026;53.612;7.278;2023-08-12T22:28:26;101447.19;;;16.92;100.00
5996;BME280;3026;53.612;7.278;2023-08-12T22:30:53;101456.09;;;16.95;100.00
5996;BME280;3026;53.612;7.278;2023-08-12T22:33:23;101441.69;;;16.92;100.00
5996;BME280;3026;53.612;7.278;2023-08-12T22:35:54;101446.97;;;16.94;100.00
5996;BME280;3026;53.612;7.278;2023-08-12T22:38:23;101431.22;;;16.88;100.00
5996;BME280;3026;53.612;7.278;2023-08-12T22:40:56;101440.16;;;16.90;100.00
5996;BME280;3026;53.612;7.278;2023-08-12T22:43:23;101435.91;;;16.87;100.00
5996;BME280;3026;53.612;7.278;2023-08-12T22:45:53;101436.31;;;16.84;100.00
5996;BME280;3026;53.612;7.278;2023-08-12T22:48:22;101441.59;;;16.86;100.00
5996;BME280;3026;53.612;7.278;2023-08-12T22:50:50;101439.25;;;16.83;100.00
5996;BME280;3026;53.612;7.278;2023-08-12T22:53:24;101448.56;;;16.82;100.00
5996;BME280;3026;53.612;7.278;2023-08-12T22:56:11;101445.19;;;16.80;100.00
5996;BME280;3026;53.612;7.278;2023-08-12T22:58:46;101444.50;;;16.78;100.00
5996;BME280;3026;53.612;7.278;2023-08-12T23:01:23;101440.88;;;16.77;100.00
5996;BME280;3026;53.612;7.278;2023-08-12T23:04:08;101443.00;;;16.75;100.00
5996;BME280;3026;53.612;7.278;2023-08-12T23:07:07;101448.50;;;16.75;100.00
5996;BME280;3026;53.612;7.278;2023-08-12T23:09:46;101443.00;;;16.75;100.00
5996;BME280;3026;53.612;7.278;2023-08-12T23:12:25;101443.00;;;16.75;100.00
5996;BME280;3026;53.612;7.278;2023-08-12T23:15:05;101439.19;;;16.76;100.00
5996;BME280;3026;53.612;7.278;2023-08-12T23:20:51;101442.75;;;16.70;100.00
5996;BME280;3026;53.612;7.278;2023-08-12T23:23:37;101443.41;;;16.72;100.00
5996;BME280;3026;53.612;7.278;2023-08-12T23:26:37;101441.25;;;16.68;100.00
5996;BME280;3026;53.612;7.278;2023-08-12T23:29:19;101442.75;;;16.70;100.00
5996;BME280;3026;53.612;7.278;2023-08-12T23:31:49;101435.88;;;16.66;100.00
5996;BME280;3026;53.612;7.278;2023-08-12T23:34:22;101436.59;;;16.68;100.00
5996;BME280;3026;53.612;7.278;2023-08-12T23:36:49;101427.63;;;16.66;100.00
5996;BME280;3026;53.612;7.278;2023-08-12T23:39:19;101434.88;;;16.67;100.00
5996;BME280;3026;53.612;7.278;2023-08-12T23:41:56;101434.88;;;16.67;100.00
5996;BME280;3026;53.612;7.278;2023-08-12T23:44:32;101433.97;;;16.67;100.00
5996;BME280;3026;53.612;7.278;2023-08-12T23:47:12;101433.13;;;16.66;100.00
5996;BME280;3026;53.612;7.278;2023-08-12T23:49:57;101433.53;;;16.63;100.00
5996;BME280;3026;53.612;7.278;2023-08-12T23:52:42;101437.34;;;16.62;100.00
5996;BME280;3026;53.612;7.278;2023-08-12T23:55:16;101442.66;;;16.63;100.00
5996;BME280;3026;53.612;7.278;2023-08-12T23:58:11;101435.66;;;16.61;100.00
